sensor_id;sensor_type;location;lat;lon;timestamp;pressure;altitude;pressure_sealevel;temperature;humidity
7058;BME280;3570;43.080;25.628;2023-09-07T00:01:25;-20063.13;;;21.00;100.00
7058;BME280;3570;43.080;25.628;2023-09-07T00:04:09;-20065.59;;;21.08;100.00
7058;BME280;3570;43.080;25.628;2023-09-07T00:06:54;-20067.91;;;21.16;100.00
7058;BME280;3570;43.080;25.628;2023-09-07T00:09:38;-20064.59;;;21.05;100.00
7058;BME280;3570;43.080;25.628;2023-09-07T00:12:22;-20067.19;;;21.14;100.00
7058;BME280;3570;43.080;25.628;2023-09-07T00:15:07;-20068.50;;;21.18;100.00
7058;BME280;3570;43.080;25.628;2023-09-07T00:17:51;-20074.56;;;21.39;100.00
7058;BME280;3570;43.080;25.628;2023-09-07T00:20:35;-20074.13;;;21.38;100.00
7058;BME280;3570;43.080;25.628;2023-09-07T00:23:19;-20075.31;;;21.42;100.00
7058;BME280;3570;43.080;25.628;2023-09-07T00:26:06;-20074.28;;;21.38;100.00
7058;BME280;3570;43.080;25.628;2023-09-07T00:28:50;-20066.91;;;21.13;100.00
7058;BME280;3570;43.080;25.628;2023-09-07T00:31:35;-20077.63;;;21.50;100.00
7058;BME280;3570;43.080;25.628;2023-09-07T00:34:18;-20072.56;;;21.32;100.00
7058;BME280;3570;43.080;25.628;2023-09-07T00:37:03;-20065.88;;;21.09;100.00
7058;BME280;3570;43.080;25.628;2023-09-07T00:39:47;-20043.13;;;20.30;100.00
7058;BME280;3570;43.080;25.628;2023-09-07T00:42:31;-20025.59;;;19.69;100.00
7058;BME280;3570;43.080;25.628;2023-09-07T00:45:16;-20012.38;;;19.24;100.00
7058;BME280;3570;43.080;25.628;2023-09-07T00:48:00;-20020.38;;;19.51;100.00
7058;BME280;3570;43.080;25.628;2023-09-07T00:50:45;-20026.75;;;19.74;100.00
7058;BME280;3570;43.080;25.628;2023-09-07T00:53:29;-20038.94;;;20.16;100.00
7058;BME280;3570;43.080;25.628;2023-09-07T00:56:13;-20037.34;;;20.10;100.00
7058;BME280;3570;43.080;25.628;2023-09-07T00:58:58;-20026.31;;;19.72;100.00
7058;BME280;3570;43.080;25.628;2023-09-07T01:01:43;-20031.25;;;19.89;100.00
7058;BME280;3570;43.080;25.628;2023-09-07T01:04:27;-20042.69;;;20.29;100.00
7058;BME280;3570;43.080;25.628;2023-09-07T01:07:18;-20054.72;;;20.71;100.00
7058;BME280;3570;43.080;25.628;2023-09-07T01:10:04;-20061.53;;;20.94;100.00
7058;BME280;3570;43.080;25.628;2023-09-07T01:12:48;-20066.03;;;21.10;100.00
7058;BME280;3570;43.080;25.628;2023-09-07T01:15:32;-20067.03;;;21.13;100.00
7058;BME280;3570;43.080;25.628;2023-09-07T01:18:17;-20067.91;;;21.16;100.00
7058;BME280;3570;43.080;25.628;2023-09-07T01:21:02;-20065.75;;;21.09;100.00
7058;BME280;3570;43.080;25.628;2023-09-07T01:23:47;-20071.25;;;21.28;100.00
7058;BME280;3570;43.080;25.628;2023-09-07T01:26:31;-20071.69;;;21.29;100.00
7058;BME280;3570;43.080;25.628;2023-09-07T01:29:15;-20067.75;;;21.16;100.00
7058;BME280;3570;43.080;25.628;2023-09-07T01:32:03;-20075.72;;;21.43;100.00
7058;BME280;3570;43.080;25.628;2023-09-07T01:34:49;-20076.03;;;21.44;100.00
7058;BME280;3570;43.080;25.628;2023-09-07T01:37:33;-20067.75;;;21.16;100.00
7058;BME280;3570;43.080;25.628;2023-09-07T01:40:17;-20066.63;;;21.12;100.00
7058;BME280;3570;43.080;25.628;2023-09-07T01:43:01;-20065.88;;;21.09;100.00
7058;BME280;3570;43.080;25.628;2023-09-07T01:45:44;-20057.03;;;20.79;100.00
7058;BME280;3570;43.080;25.628;2023-09-07T01:48:28;-20057.19;;;20.79;100.00
7058;BME280;3570;43.080;25.628;2023-09-07T01:51:12;-20059.06;;;20.86;100.00
7058;BME280;3570;43.080;25.628;2023-09-07T01:53:56;-20059.66;;;20.88;100.00
7058;BME280;3570;43.080;25.628;2023-09-07T01:56:40;-20055.16;;;20.72;100.00
7058;BME280;3570;43.080;25.628;2023-09-07T01:59:25;-20063.41;;;21.01;100.00
7058;BME280;3570;43.080;25.628;2023-09-07T02:02:09;-20061.69;;;20.95;100.00
7058;BME280;3570;43.080;25.628;2023-09-07T02:04:53;-20063.13;;;21.00;100.00
7058;BME280;3570;43.080;25.628;2023-09-07T02:07:36;-20071.81;;;21.30;100.00
7058;BME280;3570;43.080;25.628;2023-09-07T02:10:20;-20059.06;;;20.86;100.00
7058;BME280;3570;43.080;25.628;2023-09-07T02:13:04;-20062.97;;;20.99;100.00
7058;BME280;3570;43.080;25.628;2023-09-07T02:15:48;-20057.47;;;20.80;100.00
7058;BME280;3570;43.080;25.628;2023-09-07T02:18:32;-20060.09;;;20.89;100.00
7058;BME280;3570;43.080;25.628;2023-09-07T02:21:17;-20055.59;;;20.74;100.00
7058;BME280;3570;43.080;25.628;2023-09-07T02:24:01;-20053.13;;;20.65;100.00
7058;BME280;3570;43.080;25.628;2023-09-07T02:26:45;-20049.94;;;20.54;100.00
7058;BME280;3570;43.080;25.628;2023-09-07T02:29:29;-20042.84;;;20.29;100.00
7058;BME280;3570;43.080;25.628;2023-09-07T02:32:13;-20039.22;;;20.17;100.00
7058;BME280;3570;43.080;25.628;2023-09-07T02:34:57;-20033.41;;;19.97;100.00
7058;BME280;3570;43.080;25.628;2023-09-07T02:37:41;-20020.38;;;19.51;100.00
7058;BME280;3570;43.080;25.628;2023-09-07T02:40:25;-20032.69;;;19.94;100.00
7058;BME280;3570;43.080;25.628;2023-09-07T02:43:10;-20037.03;;;20.09;100.00
7058;BME280;3570;43.080;25.628;2023-09-07T02:45:54;-20043.84;;;20.33;100.00
7058;BME280;3570;43.080;25.628;2023-09-07T02:48:38;-20036.63;;;20.08;100.00
7058;BME280;3570;43.080;25.628;2023-09-07T02:51:23;-20018.34;;;19.44;100.00
7058;BME280;3570;43.080;25.628;2023-09-07T02:54:07;-19993.97;;;18.60;100.00
7058;BME280;3570;43.080;25.628;2023-09-07T02:56:51;-19976.09;;;17.98;100.00
7058;BME280;3570;43.080;25.628;2023-09-07T02:59:35;-19964.19;;;17.57;100.00
7058;BME280;3570;43.080;25.628;2023-09-07T03:02:19;-19962.00;;;17.49;100.00
7058;BME280;3570;43.080;25.628;2023-09-07T03:05:03;-19972.75;;;17.86;100.00
7058;BME280;3570;43.080;25.628;2023-09-07T03:07:50;-19990.78;;;18.49;100.00
7058;BME280;3570;43.080;25.628;2023-09-07T03:10:38;-20014.41;;;19.31;100.00
7058;BME280;3570;43.080;25.628;2023-09-07T03:13:23;-20022.69;;;19.59;100.00
7058;BME280;3570;43.080;25.628;2023-09-07T03:16:07;-20025.16;;;19.68;100.00
7058;BME280;3570;43.080;25.628;2023-09-07T03:18:51;-20032.84;;;19.95;100.00
7058;BME280;3570;43.080;25.628;2023-09-07T03:21:35;-20032.41;;;19.93;100.00
7058;BME280;3570;43.080;25.628;2023-09-07T03:24:19;-20024.44;;;19.65;100.00
7058;BME280;3570;43.080;25.628;2023-09-07T03:27:04;-20031.38;;;19.90;100.00
7058;BME280;3570;43.080;25.628;2023-09-07T03:29:50;-20037.63;;;20.11;100.00
7058;BME280;3570;43.080;25.628;2023-09-07T03:32:35;-20030.22;;;19.86;100.00
7058;BME280;3570;43.080;25.628;2023-09-07T03:35:20;-20044.59;;;20.35;100.00
7058;BME280;3570;43.080;25.628;2023-09-07T03:38:04;-20041.97;;;20.26;100.00
7058;BME280;3570;43.080;25.628;2023-09-07T03:40:48;-20045.44;;;20.38;100.00
7058;BME280;3570;43.080;25.628;2023-09-07T03:43:32;-20048.50;;;20.49;100.00
7058;BME280;3570;43.080;25.628;2023-09-07T03:46:16;-20045.31;;;20.38;100.00
7058;BME280;3570;43.080;25.628;2023-09-07T03:48:59;-20048.50;;;20.49;100.00
7058;BME280;3570;43.080;25.628;2023-09-07T03:51:43;-20048.34;;;20.48;100.00
7058;BME280;3570;43.080;25.628;2023-09-07T03:54:27;-20045.91;;;20.40;100.00
7058;BME280;3570;43.080;25.628;2023-09-07T03:57:11;-20042.41;;;20.28;100.00
7058;BME280;3570;43.080;25.628;2023-09-07T03:59:56;-20041.25;;;20.24;100.00
7058;BME280;3570;43.080;25.628;2023-09-07T04:02:40;-20041.09;;;20.23;100.00
7058;BME280;3570;43.080;25.628;2023-09-07T04:05:24;-20048.50;;;20.49;100.00
7058;BME280;3570;43.080;25.628;2023-09-07T04:08:08;-20045.44;;;20.38;100.00
7058;BME280;3570;43.080;25.628;2023-09-07T04:10:53;-20037.47;;;20.11;100.00
7058;BME280;3570;43.080;25.628;2023-09-07T04:13:37;-20038.34;;;20.14;100.00
7058;BME280;3570;43.080;25.628;2023-09-07T04:16:20;-20042.41;;;20.28;100.00
7058;BME280;3570;43.080;25.628;2023-09-07T04:19:04;-20043.84;;;20.33;100.00
7058;BME280;3570;43.080;25.628;2023-09-07T04:21:48;-20046.91;;;20.43;100.00
7058;BME280;3570;43.080;25.628;2023-09-07T04:24:32;-20046.63;;;20.42;100.00
7058;BME280;3570;43.080;25.628;2023-09-07T04:27:16;-20051.69;;;20.60;100.00
7058;BME280;3570;43.080;25.628;2023-09-07T04:30:00;-20047.19;;;20.44;100.00
7058;BME280;3570;43.080;25.628;2023-09-07T04:32:44;-20050.38;;;20.55;100.00
7058;BME280;3570;43.080;25.628;2023-09-07T04:35:29;-20054.59;;;20.70;100.00
7058;BME280;3570;43.080;25.628;2023-09-07T04:38:16;-20054.59;;;20.70;100.00
7058;BME280;3570;43.080;25.628;2023-09-07T04:41:11;-20046.19;;;20.41;100.00
7058;BME280;3570;43.080;25.628;2023-09-07T04:43:55;-20042.41;;;20.28;100.00
7058;BME280;3570;43.080;25.628;2023-09-07T04:46:40;-20046.91;;;20.43;100.00
7058;BME280;3570;43.080;25.628;2023-09-07T04:49:24;-20037.34;;;20.10;100.00
7058;BME280;3570;43.080;25.628;2023-09-07T04:52:10;-20042.13;;;20.27;100.00
7058;BME280;3570;43.080;25.628;2023-09-07T04:54:54;-20046.47;;;20.42;100.00
7058;BME280;3570;43.080;25.628;2023-09-07T04:57:38;-20049.66;;;20.53;100.00
7058;BME280;3570;43.080;25.628;2023-09-07T05:00:22;-20040.66;;;20.22;100.00
7058;BME280;3570;43.080;25.628;2023-09-07T05:03:06;-20024.13;;;19.64;100.00
7058;BME280;3570;43.080;25.628;2023-09-07T05:05:53;-20012.97;;;19.26;100.00
7058;BME280;3570;43.080;25.628;2023-09-07T05:08:37;-20016.59;;;19.38;100.00
7058;BME280;3570;43.080;25.628;2023-09-07T05:11:21;-20010.06;;;19.16;100.00
7058;BME280;3570;43.080;25.628;2023-09-07T05:14:05;-19998.91;;;18.77;100.00
7058;BME280;3570;43.080;25.628;2023-09-07T05:16:49;-19998.03;;;18.74;100.00
7058;BME280;3570;43.080;25.628;2023-09-07T05:19:33;-20007.03;;;19.05;100.00
7058;BME280;3570;43.080;25.628;2023-09-07T05:22:51;-20035.88;;;20.05;100.00
7058;BME280;3570;43.080;25.628;2023-09-07T05:25:42;-20053.13;;;20.65;100.00
7058;BME280;3570;43.080;25.628;2023-09-07T05:28:26;-20054.88;;;20.71;100.00
7058;BME280;3570;43.080;25.628;2023-09-07T05:31:10;-20062.69;;;20.98;100.00
7058;BME280;3570;43.080;25.628;2023-09-07T05:33:54;-20073.72;;;21.36;100.00
7058;BME280;3570;43.080;25.628;2023-09-07T05:36:38;-20078.34;;;21.52;100.00
7058;BME280;3570;43.080;25.628;2023-09-07T05:39:22;-20085.88;;;21.79;100.00
7058;BME280;3570;43.080;25.628;2023-09-07T05:42:06;-20094.69;;;22.09;100.00
7058;BME280;3570;43.080;25.628;2023-09-07T05:44:50;-20092.25;;;22.01;100.00
7058;BME280;3570;43.080;25.628;2023-09-07T05:47:34;-20093.38;;;22.05;100.00
7058;BME280;3570;43.080;25.628;2023-09-07T05:50:18;-20094.41;;;22.08;100.00
7058;BME280;3570;43.080;25.628;2023-09-07T05:53:03;-20080.94;;;21.62;100.00
7058;BME280;3570;43.080;25.628;2023-09-07T05:55:47;-20091.38;;;21.98;100.00
7058;BME280;3570;43.080;25.628;2023-09-07T05:58:31;-20093.69;;;22.06;100.00
7058;BME280;3570;43.080;25.628;2023-09-07T06:01:14;-20077.91;;;21.51;100.00
7058;BME280;3570;43.080;25.628;2023-09-07T06:03:58;-20069.66;;;21.22;100.00
7058;BME280;3570;43.080;25.628;2023-09-07T06:06:43;-20069.94;;;21.23;100.00
7058;BME280;3570;43.080;25.628;2023-09-07T06:09:27;-20066.75;;;21.12;100.00
7058;BME280;3570;43.080;25.628;2023-09-07T06:12:12;-20066.31;;;21.11;100.00
7058;BME280;3570;43.080;25.628;2023-09-07T06:14:57;-20066.75;;;21.12;100.00
7058;BME280;3570;43.080;25.628;2023-09-07T06:17:41;-20054.44;;;20.70;100.00
7058;BME280;3570;43.080;25.628;2023-09-07T06:20:25;-20062.25;;;20.97;100.00
7058;BME280;3570;43.080;25.628;2023-09-07T06:23:09;-20066.31;;;21.11;100.00
7058;BME280;3570;43.080;25.628;2023-09-07T06:25:53;-20070.53;;;21.25;100.00
7058;BME280;3570;43.080;25.628;2023-09-07T06:28:37;-20066.91;;;21.13;100.00
7058;BME280;3570;43.080;25.628;2023-09-07T06:31:21;-20077.75;;;21.50;100.00
7058;BME280;3570;43.080;25.628;2023-09-07T06:34:05;-20088.19;;;21.87;100.00
7058;BME280;3570;43.080;25.628;2023-09-07T06:36:50;-20078.34;;;21.52;100.00
7058;BME280;3570;43.080;25.628;2023-09-07T06:39:34;-20086.75;;;21.82;100.00
7058;BME280;3570;43.080;25.628;2023-09-07T06:42:18;-20093.38;;;22.05;100.00
7058;BME280;3570;43.080;25.628;2023-09-07T06:45:02;-20097.16;;;22.18;100.00
7058;BME280;3570;43.080;25.628;2023-09-07T06:47:49;-20108.88;;;22.59;100.00
7058;BME280;3570;43.080;25.628;2023-09-07T06:50:33;-20124.63;;;23.13;100.00
7058;BME280;3570;43.080;25.628;2023-09-07T06:53:17;-20133.31;;;23.44;100.00
7058;BME280;3570;43.080;25.628;2023-09-07T06:56:03;-20120.88;;;23.00;100.00
7058;BME280;3570;43.080;25.628;2023-09-07T06:58:47;-20123.19;;;23.08;100.00
7058;BME280;3570;43.080;25.628;2023-09-07T07:01:31;-20124.06;;;23.11;100.00
7058;BME280;3570;43.080;25.628;2023-09-07T07:04:15;-20138.81;;;23.63;100.00
7058;BME280;3570;43.080;25.628;2023-09-07T07:06:59;-20149.78;;;24.01;100.00
7058;BME280;3570;43.080;25.628;2023-09-07T07:09:47;-20152.38;;;24.10;100.00
7058;BME280;3570;43.080;25.628;2023-09-07T07:12:31;-20148.78;;;23.97;100.00
7058;BME280;3570;43.080;25.628;2023-09-07T07:15:18;-20147.47;;;23.93;100.00
7058;BME280;3570;43.080;25.628;2023-09-07T07:18:02;-20159.03;;;24.33;100.00
7058;BME280;3570;43.080;25.628;2023-09-07T07:20:52;-20162.78;;;24.46;100.00
7058;BME280;3570;43.080;25.628;2023-09-07T07:23:36;-20173.75;;;24.84;100.00
7058;BME280;3570;43.080;25.628;2023-09-07T07:26:20;-20181.53;;;25.11;100.00
7058;BME280;3570;43.080;25.628;2023-09-07T07:29:04;-20183.13;;;25.17;99.40
7058;BME280;3570;43.080;25.628;2023-09-07T07:31:48;-20188.19;;;25.35;99.01
7058;BME280;3570;43.080;25.628;2023-09-07T07:34:32;-20178.09;;;24.99;96.84
7058;BME280;3570;43.080;25.628;2023-09-07T07:37:16;-20192.50;;;25.50;97.77
7058;BME280;3570;43.080;25.628;2023-09-07T07:40:00;-20182.69;;;25.15;98.50
7058;BME280;3570;43.080;25.628;2023-09-07T07:42:45;-20195.69;;;25.61;96.47
7058;BME280;3570;43.080;25.628;2023-09-07T07:45:30;-20209.81;;;26.10;91.42
7058;BME280;3570;43.080;25.628;2023-09-07T07:48:15;-20218.19;;;26.39;91.02
7058;BME280;3570;43.080;25.628;2023-09-07T07:51:05;-20224.66;;;26.62;88.57
7058;BME280;3570;43.080;25.628;2023-09-07T07:53:49;-20224.94;;;26.63;75.56
7058;BME280;3570;43.080;25.628;2023-09-07T07:56:33;-20233.59;;;26.93;75.56
7058;BME280;3570;43.080;25.628;2023-09-07T07:59:17;-20233.47;;;26.92;74.91
7058;BME280;3570;43.080;25.628;2023-09-07T08:02:01;-20237.78;;;27.08;74.04
7058;BME280;3570;43.080;25.628;2023-09-07T08:04:45;-20233.31;;;26.92;72.59
7058;BME280;3570;43.080;25.628;2023-09-07T08:07:29;-20241.53;;;27.21;72.78
7058;BME280;3570;43.080;25.628;2023-09-07T08:10:13;-20242.66;;;27.25;72.57
7058;BME280;3570;43.080;25.628;2023-09-07T08:12:57;-20242.09;;;27.23;70.16
7058;BME280;3570;43.080;25.628;2023-09-07T08:15:41;-20251.59;;;27.56;69.02
7058;BME280;3570;43.080;25.628;2023-09-07T08:18:26;-20254.63;;;27.66;67.88
7058;BME280;3570;43.080;25.628;2023-09-07T08:21:13;-20253.03;;;27.61;69.38
7058;BME280;3570;43.080;25.628;2023-09-07T08:23:57;-20253.31;;;27.62;67.42
7058;BME280;3570;43.080;25.628;2023-09-07T08:26:42;-20258.94;;;27.81;66.65
7058;BME280;3570;43.080;25.628;2023-09-07T08:29:26;-20254.19;;;27.65;65.54
7058;BME280;3570;43.080;25.628;2023-09-07T08:32:10;-20255.47;;;27.69;67.17
7058;BME280;3570;43.080;25.628;2023-09-07T08:34:55;-20264.69;;;28.02;65.71
7058;BME280;3570;43.080;25.628;2023-09-07T08:37:41;-20262.25;;;27.93;63.77
7058;BME280;3570;43.080;25.628;2023-09-07T08:40:26;-20265.69;;;28.05;64.82
7058;BME280;3570;43.080;25.628;2023-09-07T08:43:12;-20276.50;;;28.43;63.23
7058;BME280;3570;43.080;25.628;2023-09-07T08:46:20;-20283.97;;;28.69;61.79
7058;BME280;3570;43.080;25.628;2023-09-07T08:49:12;-20281.25;;;28.59;61.81
7058;BME280;3570;43.080;25.628;2023-09-07T08:51:58;-20274.03;;;28.34;60.70
7058;BME280;3570;43.080;25.628;2023-09-07T08:54:43;-20280.53;;;28.57;61.07
7058;BME280;3570;43.080;25.628;2023-09-07T08:57:30;-20293.88;;;29.04;56.65
7058;BME280;3570;43.080;25.628;2023-09-07T09:00:15;-20309.41;;;29.58;57.34
7058;BME280;3570;43.080;25.628;2023-09-07T09:03:00;-20332.09;;;30.37;51.73
7058;BME280;3570;43.080;25.628;2023-09-07T09:05:44;-20357.34;;;31.26;49.33
7058;BME280;3570;43.080;25.628;2023-09-07T09:08:48;-20375.41;;;31.89;45.94
7058;BME280;3570;43.080;25.628;2023-09-07T09:11:39;-20411.22;;;33.15;43.07
7058;BME280;3570;43.080;25.628;2023-09-07T09:14:23;-20415.06;;;33.28;41.84
7058;BME280;3570;43.080;25.628;2023-09-07T09:17:11;-20405.78;;;32.96;40.97
7058;BME280;3570;43.080;25.628;2023-09-07T09:19:56;-20395.75;;;32.61;42.53
7058;BME280;3570;43.080;25.628;2023-09-07T09:22:40;-20404.63;;;32.92;41.53
7058;BME280;3570;43.080;25.628;2023-09-07T09:25:24;-20404.91;;;32.93;40.70
7058;BME280;3570;43.080;25.628;2023-09-07T09:28:10;-20432.09;;;33.88;37.89
7058;BME280;3570;43.080;25.628;2023-09-07T09:30:55;-20439.81;;;34.15;37.76
7058;BME280;3570;43.080;25.628;2023-09-07T09:33:40;-20440.38;;;34.17;37.12
7058;BME280;3570;43.080;25.628;2023-09-07T09:36:33;-20430.09;;;33.81;37.93
7058;BME280;3570;43.080;25.628;2023-09-07T09:39:24;-20429.25;;;33.78;36.08
7058;BME280;3570;43.080;25.628;2023-09-07T09:42:09;-20445.09;;;34.34;35.97
7058;BME280;3570;43.080;25.628;2023-09-07T09:44:54;-20467.69;;;35.14;34.32
7058;BME280;3570;43.080;25.628;2023-09-07T09:47:42;-20450.69;;;34.54;33.96
7058;BME280;3570;43.080;25.628;2023-09-07T09:50:27;-20448.81;;;34.47;34.88
7058;BME280;3570;43.080;25.628;2023-09-07T09:53:12;-20462.97;;;34.97;33.90
7058;BME280;3570;43.080;25.628;2023-09-07T09:56:01;-20474.66;;;35.38;33.48
7058;BME280;3570;43.080;25.628;2023-09-07T09:58:45;-20471.81;;;35.28;33.15
7058;BME280;3570;43.080;25.628;2023-09-07T10:01:28;-20483.22;;;35.68;33.29
7058;BME280;3570;43.080;25.628;2023-09-07T10:04:15;-20506.63;;;36.51;31.86
7058;BME280;3570;43.080;25.628;2023-09-07T10:07:01;-20513.75;;;36.76;31.35
7058;BME280;3570;43.080;25.628;2023-09-07T10:09:45;-20530.56;;;37.35;30.48
7058;BME280;3570;43.080;25.628;2023-09-07T10:12:29;-20552.47;;;38.13;28.78
7058;BME280;3570;43.080;25.628;2023-09-07T10:15:24;-20534.97;;;37.51;28.64
7058;BME280;3570;43.080;25.628;2023-09-07T10:18:16;-20541.09;;;37.72;28.71
7058;BME280;3570;43.080;25.628;2023-09-07T10:21:00;-20531.41;;;37.38;28.71
7058;BME280;3570;43.080;25.628;2023-09-07T10:23:51;-20526.13;;;37.20;30.13
7058;BME280;3570;43.080;25.628;2023-09-07T10:26:35;-20544.94;;;37.86;28.85
7058;BME280;3570;43.080;25.628;2023-09-07T10:29:19;-20560.59;;;38.41;28.30
7058;BME280;3570;43.080;25.628;2023-09-07T10:32:07;-20537.09;;;37.58;28.90
7058;BME280;3570;43.080;25.628;2023-09-07T10:34:52;-20541.38;;;37.73;27.23
7058;BME280;3570;43.080;25.628;2023-09-07T10:37:36;-20520.03;;;36.98;28.30
7058;BME280;3570;43.080;25.628;2023-09-07T10:40:22;-20530.28;;;37.34;28.34
7058;BME280;3570;43.080;25.628;2023-09-07T10:43:06;-20557.03;;;38.29;26.82
7058;BME280;3570;43.080;25.628;2023-09-07T10:45:53;-20580.63;;;39.12;26.00
7058;BME280;3570;43.080;25.628;2023-09-07T10:48:38;-20600.66;;;39.83;24.85
7058;BME280;3570;43.080;25.628;2023-09-07T10:51:22;-20576.94;;;38.99;25.32
7058;BME280;3570;43.080;25.628;2023-09-07T10:54:22;-20583.03;;;39.21;25.21
7058;BME280;3570;43.080;25.628;2023-09-07T10:57:11;-20579.22;;;39.07;25.12
7058;BME280;3570;43.080;25.628;2023-09-07T10:59:57;-20577.22;;;39.00;25.36
7058;BME280;3570;43.080;25.628;2023-09-07T11:02:42;-20574.66;;;38.91;25.05
7058;BME280;3570;43.080;25.628;2023-09-07T11:05:26;-20589.00;;;39.42;24.50
7058;BME280;3570;43.080;25.628;2023-09-07T11:08:10;-20599.38;;;39.79;25.09
7058;BME280;3570;43.080;25.628;2023-09-07T11:10:55;-20588.59;;;39.40;24.76
7058;BME280;3570;43.080;25.628;2023-09-07T11:13:39;-20623.66;;;40.65;24.10
7058;BME280;3570;43.080;25.628;2023-09-07T11:16:25;-20624.50;;;40.68;23.02
7058;BME280;3570;43.080;25.628;2023-09-07T11:19:13;-20585.88;;;39.31;24.89
7058;BME280;3570;43.080;25.628;2023-09-07T11:21:59;-20596.53;;;39.69;24.66
7058;BME280;3570;43.080;25.628;2023-09-07T11:24:43;-20619.25;;;40.49;24.28
7058;BME280;3570;43.080;25.628;2023-09-07T11:27:34;-20607.19;;;40.06;23.57
7058;BME280;3570;43.080;25.628;2023-09-07T11:30:17;-20532.41;;;37.42;26.00
7058;BME280;3570;43.080;25.628;2023-09-07T11:33:02;-20532.69;;;37.43;26.23
7058;BME280;3570;43.080;25.628;2023-09-07T11:35:48;-20571.97;;;38.82;25.17
7058;BME280;3570;43.080;25.628;2023-09-07T11:38:36;-20594.97;;;39.63;24.40
7058;BME280;3570;43.080;25.628;2023-09-07T11:41:21;-20635.69;;;41.07;23.36
7058;BME280;3570;43.080;25.628;2023-09-07T11:44:05;-20662.31;;;42.02;22.72
7058;BME280;3570;43.080;25.628;2023-09-07T11:46:49;-20646.19;;;41.45;22.97
7058;BME280;3570;43.080;25.628;2023-09-07T11:49:33;-20659.78;;;41.93;22.80
7058;BME280;3570;43.080;25.628;2023-09-07T11:52:17;-20659.22;;;41.91;22.15
7058;BME280;3570;43.080;25.628;2023-09-07T11:55:02;-20667.44;;;42.20;22.55
7058;BME280;3570;43.080;25.628;2023-09-07T11:57:47;-20698.53;;;43.31;21.29
7058;BME280;3570;43.080;25.628;2023-09-07T12:00:31;-20719.03;;;44.04;20.56
7058;BME280;3570;43.080;25.628;2023-09-07T12:03:15;-20724.09;;;44.22;20.30
7058;BME280;3570;43.080;25.628;2023-09-07T12:05:59;-20703.34;;;43.48;21.18
7058;BME280;3570;43.080;25.628;2023-09-07T12:08:58;-20677.63;;;42.56;21.81
7058;BME280;3570;43.080;25.628;2023-09-07T12:11:42;-20682.84;;;42.75;22.01
7058;BME280;3570;43.080;25.628;2023-09-07T12:14:27;-20705.88;;;43.57;20.60
7058;BME280;3570;43.080;25.628;2023-09-07T12:17:11;-20651.72;;;41.64;22.66
7058;BME280;3570;43.080;25.628;2023-09-07T12:19:55;-20596.09;;;39.67;24.20
7058;BME280;3570;43.080;25.628;2023-09-07T12:22:39;-20540.09;;;37.69;26.30
7058;BME280;3570;43.080;25.628;2023-09-07T12:25:24;-20503.91;;;36.41;28.27
7058;BME280;3570;43.080;25.628;2023-09-07T12:28:08;-20525.28;;;37.17;27.02
7058;BME280;3570;43.080;25.628;2023-09-07T12:30:52;-20557.03;;;38.29;26.08
7058;BME280;3570;43.080;25.628;2023-09-07T12:33:36;-20592.00;;;39.53;24.62
7058;BME280;3570;43.080;25.628;2023-09-07T12:36:21;-20614.41;;;40.32;23.77
7058;BME280;3570;43.080;25.628;2023-09-07T12:39:05;-20627.75;;;40.79;22.86
7058;BME280;3570;43.080;25.628;2023-09-07T12:41:49;-20648.72;;;41.54;22.20
7058;BME280;3570;43.080;25.628;2023-09-07T12:44:34;-20606.63;;;40.04;23.35
7058;BME280;3570;43.080;25.628;2023-09-07T12:47:17;-20548.34;;;37.98;26.20
7058;BME280;3570;43.080;25.628;2023-09-07T12:50:02;-20580.34;;;39.11;24.21
7058;BME280;3570;43.080;25.628;2023-09-07T12:52:46;-20554.91;;;38.21;25.01
7058;BME280;3570;43.080;25.628;2023-09-07T12:55:30;-20516.88;;;36.87;27.01
7058;BME280;3570;43.080;25.628;2023-09-07T12:58:14;-20492.66;;;36.02;27.76
7058;BME280;3570;43.080;25.628;2023-09-07T13:00:58;-20478.38;;;35.51;29.88
7058;BME280;3570;43.080;25.628;2023-09-07T13:03:42;-20462.41;;;34.95;30.08
7058;BME280;3570;43.080;25.628;2023-09-07T13:06:26;-20448.09;;;34.45;30.84
7058;BME280;3570;43.080;25.628;2023-09-07T13:09:10;-20448.09;;;34.45;30.83
7058;BME280;3570;43.080;25.628;2023-09-07T13:11:55;-20455.81;;;34.72;30.17
7058;BME280;3570;43.080;25.628;2023-09-07T13:14:39;-20508.34;;;36.57;27.53
7058;BME280;3570;43.080;25.628;2023-09-07T13:17:23;-20576.38;;;38.97;25.19
7058;BME280;3570;43.080;25.628;2023-09-07T13:20:08;-20630.16;;;40.88;23.03
7058;BME280;3570;43.080;25.628;2023-09-07T13:22:52;-20631.16;;;40.91;22.71
7058;BME280;3570;43.080;25.628;2023-09-07T13:25:36;-20655.25;;;41.77;22.52
7058;BME280;3570;43.080;25.628;2023-09-07T13:28:20;-20662.91;;;42.04;22.00
7058;BME280;3570;43.080;25.628;2023-09-07T13:31:04;-20647.03;;;41.48;22.45
7058;BME280;3570;43.080;25.628;2023-09-07T13:33:49;-20639.09;;;41.19;23.10
7058;BME280;3570;43.080;25.628;2023-09-07T13:36:33;-20589.72;;;39.44;24.90
7058;BME280;3570;43.080;25.628;2023-09-07T13:39:17;-20526.44;;;37.21;27.24
7058;BME280;3570;43.080;25.628;2023-09-07T13:42:01;-20500.91;;;36.31;28.45
7058;BME280;3570;43.080;25.628;2023-09-07T13:44:45;-20474.09;;;35.36;29.18
7058;BME280;3570;43.080;25.628;2023-09-07T13:47:31;-20449.41;;;34.49;30.61
7058;BME280;3570;43.080;25.628;2023-09-07T13:50:15;-20441.53;;;34.22;31.24
7058;BME280;3570;43.080;25.628;2023-09-07T13:52:58;-20451.09;;;34.55;30.56
7058;BME280;3570;43.080;25.628;2023-09-07T13:55:43;-20520.59;;;37.00;27.97
7058;BME280;3570;43.080;25.628;2023-09-07T13:58:29;-20517.16;;;36.88;27.38
7058;BME280;3570;43.080;25.628;2023-09-07T14:01:13;-20497.34;;;36.18;29.16
7058;BME280;3570;43.080;25.628;2023-09-07T14:03:57;-20509.63;;;36.61;28.25
7058;BME280;3570;43.080;25.628;2023-09-07T14:06:41;-20571.53;;;38.80;25.13
7058;BME280;3570;43.080;25.628;2023-09-07T14:09:25;-20633.72;;;41.00;23.01
7058;BME280;3570;43.080;25.628;2023-09-07T14:12:09;-20666.16;;;42.16;21.77
7058;BME280;3570;43.080;25.628;2023-09-07T14:14:53;-20590.44;;;39.47;24.79
7058;BME280;3570;43.080;25.628;2023-09-07T14:17:37;-20557.75;;;38.31;25.67
7058;BME280;3570;43.080;25.628;2023-09-07T14:20:22;-20526.44;;;37.21;27.37
7058;BME280;3570;43.080;25.628;2023-09-07T14:23:08;-20498.34;;;36.22;27.67
7058;BME280;3570;43.080;25.628;2023-09-07T14:25:54;-20482.09;;;35.64;28.48
7058;BME280;3570;43.080;25.628;2023-09-07T14:28:38;-20476.66;;;35.45;29.46